Time;durP1;ratioP1;P1;durP2;ratioP2;P2;SDS_P1;SDS_P2;PMS_P1;PMS_P2;Temp;Humidity;BMP_temperature;BMP_pressure;BME280_temperature;BME280_humidity;BME280_pressure;Samples;Min_cycle;Max_cycle;Signal;HPM_P1;HPM_P2
2022/09/05 00:00:13;;;;;;;6.13;3.88;;;;;;;18.60;100.00;98237.94;5143303;27;20027;-79
2022/09/05 00:03:27;;;;;;;5.53;3.58;;;;;;;18.61;100.00;98231.50;5114291;27;20049;-80
2022/09/05 00:05:56;;;;;;;6.78;3.70;;;;;;;18.61;100.00;98238.78;5115590;27;20043;-79
2022/09/05 00:08:59;;;;;;;8.15;3.60;;;;;;;18.58;100.00;98237.19;5134358;27;20502;-79
2022/09/05 00:11:28;;;;;;;6.80;4.00;;;;;;;18.55;100.00;98237.44;5114927;27;20035;-80
2022/09/05 00:14:19;;;;;;;6.07;3.60;;;;;;;18.49;100.00;98228.94;5127064;27;20223;-79
2022/09/05 00:16:53;;;;;;;5.63;3.53;;;;;;;18.42;100.00;98231.31;5130931;27;20055;-79
2022/09/05 00:19:40;;;;;;;4.45;3.70;;;;;;;18.42;100.00;98237.59;5136626;27;20063;-79
2022/09/05 00:22:34;;;;;;;6.93;3.58;;;;;;;18.42;100.00;98240.28;5134526;27;20522;-80
2022/09/05 00:25:11;;;;;;;7.40;3.85;;;;;;;18.37;100.00;98239.78;5124372;27;20048;-79
2022/09/05 00:27:49;;;;;;;6.20;3.58;;;;;;;18.40;100.00;98241.38;5144834;27;20030;-79
2022/09/05 00:30:17;;;;;;;5.72;3.67;;;;;;;18.40;100.00;98244.97;5135567;27;20063;-80
2022/09/05 00:33:01;;;;;;;6.55;3.33;;;;;;;18.37;100.00;98238.94;5119749;27;20011;-80
2022/09/05 00:36:00;;;;;;;4.68;3.50;;;;;;;18.36;100.00;98240.75;5125140;27;20031;-79
2022/09/05 00:38:27;;;;;;;5.63;3.78;;;;;;;18.30;100.00;98229.59;5110432;27;20021;-80
2022/09/05 00:40:56;;;;;;;4.20;3.53;;;;;;;18.28;100.00;98239.69;5114247;27;20026;-80
2022/09/05 00:43:40;;;;;;;6.72;4.50;;;;;;;18.33;100.00;98253.72;5096319;28;20031;-80
2022/09/05 00:46:25;;;;;;;5.47;3.88;;;;;;;18.32;100.00;98249.28;5085600;27;20530;-78
2022/09/05 00:49:18;;;;;;;5.50;3.83;;;;;;;18.30;100.00;98253.97;5132453;27;20025;-78
2022/09/05 00:52:23;;;;;;;6.45;3.85;;;;;;;18.26;100.00;98256.06;5136674;27;20031;-80
2022/09/05 00:55:10;;;;;;;7.90;3.58;;;;;;;18.23;100.00;98258.16;5018936;28;20029;-80
2022/09/05 00:58:14;;;;;;;6.18;3.72;;;;;;;18.25;100.00;98265.19;5130370;27;20100;-79
2022/09/05 01:00:53;;;;;;;6.03;3.97;;;;;;;18.22;100.00;98262.72;5069323;28;20032;-79
2022/09/05 01:03:31;;;;;;;7.25;4.30;;;;;;;18.16;100.00;98263.22;5075781;28;20024;-80
2022/09/05 01:06:13;;;;;;;24.75;15.20;;;;;;;18.14;100.00;98258.91;5114278;27;20486;-79
2022/09/05 01:09:04;;;;;;;34.42;21.52;;;;;;;18.15;100.00;98260.66;5135316;27;20038;-79
2022/09/05 01:11:42;;;;;;;78.80;50.25;;;;;;;18.18;100.00;98263.94;5123088;27;20059;-79
2022/09/05 01:14:28;;;;;;;6.43;4.13;;;;;;;18.16;100.00;98268.63;5117458;27;20372;-80
2022/09/05 01:17:18;;;;;;;4.63;3.72;;;;;;;18.19;100.00;98267.53;5126119;27;20038;-79
2022/09/05 01:19:50;;;;;;;5.68;4.05;;;;;;;18.21;100.00;98271.81;5125328;27;20031;-79
2022/09/05 01:22:32;;;;;;;7.05;3.55;;;;;;;18.20;100.00;98253.00;5156227;27;20030;-79
2022/09/05 01:25:22;;;;;;;4.65;3.70;;;;;;;18.19;100.00;98251.28;5137725;27;20091;-81
2022/09/05 01:28:05;;;;;;;6.15;4.05;;;;;;;18.16;100.00;98251.53;5126711;27;20501;-81
2022/09/05 01:30:49;;;;;;;;;;;;;;;18.16;100.00;98268.63;5106278;27;20020;-81
2022/09/05 01:33:50;;;;;;;4.53;3.55;;;;;;;18.11;100.00;98259.16;5120519;27;19919;-79
2022/09/05 01:36:34;;;;;;;5.70;3.80;;;;;;;18.09;100.00;98261.16;5091602;27;20035;-81
2022/09/05 01:39:26;;;;;;;7.93;4.00;;;;;;;18.11;100.00;98270.88;5116508;27;20021;-80
2022/09/05 01:41:59;;;;;;;7.88;4.85;;;;;;;18.07;100.00;98260.38;5138662;27;20018;-80
2022/09/05 01:44:48;;;;;;;6.85;4.53;;;;;;;18.02;100.00;98265.31;5109031;27;20087;-80
2022/09/05 01:47:48;;;;;;;7.28;3.92;;;;;;;17.95;100.00;98259.53;5103271;27;20038;-80
2022/09/05 01:50:32;;;;;;;9.98;3.95;;;;;;;17.93;100.00;98255.25;5112867;27;20477;-80
2022/09/05 01:52:58;;;;;;;5.40;3.80;;;;;;;17.97;100.00;98257.56;5156034;27;20362;-80
2022/09/05 01:55:32;;;;;;;7.53;4.22;;;;;;;17.95;100.00;98250.56;5120237;27;20030;-80
2022/09/05 01:58:07;;;;;;;5.13;3.95;;;;;;;17.88;100.00;98252.88;5136728;27;20470;-80
2022/09/05 02:00:42;;;;;;;4.63;3.80;;;;;;;17.94;100.00;98254.22;5137335;27;20121;-80
2022/09/05 02:03:26;;;;;;;5.50;4.20;;;;;;;17.93;100.00;98249.81;5155212;27;20071;-79
2022/09/05 02:06:13;;;;;;;4.85;4.03;;;;;;;17.92;100.00;98261.63;5124179;27;20034;-80
2022/09/05 02:09:04;;;;;;;6.75;4.13;;;;;;;17.93;100.00;98255.25;5114478;27;20471;-80
2022/09/05 02:11:40;;;;;;;8.75;4.43;;;;;;;17.96;100.00;98261.28;5107695;27;20026;-80
2022/09/05 02:14:19;;;;;;;6.95;4.35;;;;;;;17.99;100.00;98262.88;5123853;27;20023;-79
2022/09/05 02:16:47;;;;;;;8.45;4.00;;;;;;;18.03;100.00;98272.44;5142903;27;20473;-80
2022/09/05 02:19:19;;;;;;;5.32;3.88;;;;;;;18.08;100.00;98259.41;5118917;27;20045;-79
2022/09/05 02:22:01;;;;;;;4.65;3.63;;;;;;;18.10;100.00;98254.72;5093705;27;20049;-80
2022/09/05 02:24:36;;;;;;;4.78;3.70;;;;;;;18.07;100.00;98254.97;5096353;28;20050;-79
2022/09/05 02:27:27;;;;;;;10.88;4.18;;;;;;;18.04;100.00;98252.50;5103747;27;20050;-79
2022/09/05 02:30:19;;;;;;;5.90;3.83;;;;;;;17.97;100.00;98244.03;5134477;27;20035;-80
2022/09/05 02:33:03;;;;;;;6.85;4.40;;;;;;;17.97;100.00;98254.84;5098941;27;20535;-80
2022/09/05 02:35:54;;;;;;;6.80;4.55;;;;;;;17.93;100.00;98249.81;5112736;27;20383;-79
2022/09/05 02:38:22;;;;;;;8.63;4.47;;;;;;;17.94;100.00;98248.81;5080082;27;20028;-79
2022/09/05 02:40:57;;;;;;;6.70;4.00;;;;;;;17.92;100.00;98250.78;5128935;27;20028;-79
2022/09/05 02:43:42;;;;;;;6.60;4.25;;;;;;;17.84;100.00;98252.25;5095230;28;20043;-78
2022/09/05 02:46:11;;;;;;;8.07;4.60;;;;;;;17.72;100.00;98237.00;5095492;28;20012;-79
2022/09/05 02:49:04;;;;;;;10.20;4.90;;;;;;;17.66;100.00;98248.31;5113352;28;20544;-79
2022/09/05 02:51:45;;;;;;;6.30;4.70;;;;;;;17.54;100.00;98246.56;5088987;27;20035;-80
2022/09/05 02:54:15;;;;;;;5.95;4.70;;;;;;;17.44;100.00;98245.56;5107133;28;20406;-80
2022/09/05 02:57:06;;;;;;;14.70;7.75;;;;;;;17.35;100.00;98254.38;5082403;27;20056;-80
2022/09/05 02:59:49;;;;;;;19.80;8.88;;;;;;;17.17;100.00;98248.56;5098372;27;20031;-79
2022/09/05 03:02:40;;;;;;;12.95;6.95;;;;;;;17.11;100.00;98259.84;5106494;28;20023;-79
2022/09/05 03:05:20;;;;;;;8.80;5.55;;;;;;;17.13;100.00;98275.97;5113004;28;20454;-81
2022/09/05 03:08:24;;;;;;;10.68;5.50;;;;;;;17.13;100.00;98271.44;5125736;27;20059;-80
2022/09/05 03:11:02;;;;;;;8.90;5.10;;;;;;;17.15;100.00;98272.16;5077555;27;20040;-79
2022/09/05 03:14:05;;;;;;;11.68;5.40;;;;;;;17.17;100.00;98286.41;5114598;27;20031;-79
2022/09/05 03:17:16;;;;;;;8.70;5.07;;;;;;;17.15;100.00;98285.69;5131804;27;20406;-79
2022/09/05 03:19:47;;;;;;;5.53;4.15;;;;;;;17.19;100.00;98283.63;5112867;28;20031;-78
2022/09/05 03:22:37;;;;;;;7.40;4.53;;;;;;;17.23;100.00;98287.78;5133509;27;20471;-80
2022/09/05 03:25:40;;;;;;;10.05;4.70;;;;;;;17.29;100.00;98287.31;5114885;27;20023;-79
2022/09/05 03:28:20;;;;;;;5.88;4.20;;;;;;;17.34;100.00;98287.84;5133339;27;20490;-80
2022/09/05 03:31:26;;;;;;;7.95;4.85;;;;;;;17.43;100.00;98294.38;5106565;27;20088;-79
2022/09/05 03:34:16;;;;;;;8.40;4.20;;;;;;;17.47;100.00;98293.16;5114735;27;20080;-80
2022/09/05 03:36:57;;;;;;;5.47;4.50;;;;;;;17.43;100.00;98297.94;5132636;27;20064;-79
2022/09/05 03:40:00;;;;;;;12.43;4.35;;;;;;;17.42;100.00;98298.03;5114468;27;20456;-78
2022/09/05 03:42:30;;;;;;;;;;;;;;;17.43;100.00;98300.66;5114329;27;20027;-79
2022/09/05 03:45:21;;;;;;;9.50;5.22;;;;;;;17.37;100.00;98302.97;5114707;27;19918;-80
2022/09/05 03:48:14;;;;;;;8.05;4.88;;;;;;;17.39;100.00;98309.97;5132521;27;20087;-80
2022/09/05 03:51:01;;;;;;;9.65;5.63;;;;;;;17.37;100.00;98308.38;5114071;27;20382;-81
2022/09/05 03:54:02;;;;;;;11.52;5.50;;;;;;;17.38;100.00;98300.13;5114149;27;20023;-80
2022/09/05 03:56:52;;;;;;;14.27;6.05;;;;;;;17.42;100.00;98307.03;5029431;28;20409;-80
2022/09/05 03:59:36;;;;;;;10.70;5.97;;;;;;;17.43;100.00;98305.19;5109699;27;20418;-80
2022/09/05 04:02:04;;;;;;;12.48;5.50;;;;;;;17.40;100.00;98306.28;5125843;27;20079;-80
2022/09/05 04:05:15;;;;;;;9.20;5.85;;;;;;;17.36;100.00;98310.22;5114205;27;20027;-79
2022/09/05 04:07:48;;;;;;;10.52;4.82;;;;;;;17.29;100.00;98308.94;5108870;27;20038;-79
2022/09/05 04:10:23;;;;;;;6.55;5.18;;;;;;;17.22;100.00;98323.94;5097409;27;20478;-80
2022/09/05 04:13:17;;;;;;;6.88;4.60;;;;;;;17.13;100.00;98328.22;5132748;27;20027;-80
2022/09/05 04:15:46;;;;;;;7.50;5.63;;;;;;;17.03;100.00;98326.31;5122746;27;20042;-80
2022/09/05 04:18:18;;;;;;;7.75;5.28;;;;;;;17.09;100.00;98329.41;5114414;27;20059;-81
2022/09/05 04:20:52;;;;;;;16.17;9.03;;;;;;;17.15;100.00;98336.19;5132115;27;20051;-81
2022/09/05 04:23:47;;;;;;;12.93;6.90;;;;;;;17.21;100.00;98349.25;5098424;27;20027;-80
2022/09/05 04:26:47;;;;;;;11.18;5.93;;;;;;;17.27;100.00;98336.13;5125299;27;20112;-81
2022/09/05 04:29:35;;;;;;;11.48;6.43;;;;;;;17.34;100.00;98350.03;5107950;27;20058;-81
2022/09/05 04:32:01;;;;;;;11.32;5.90;;;;;;;17.38;100.00;98348.81;5111979;28;20027;-84
2022/09/05 04:34:27;;;;;;;13.23;7.25;;;;;;;17.48;100.00;98357.94;5111825;27;20395;-82
2022/09/05 04:37:04;;;;;;;12.55;7.97;;;;;;;17.53;100.00;98354.91;5112722;27;20088;-81
2022/09/05 04:39:32;;;;;;;16.15;9.75;;;;;;;17.62;100.00;98357.81;5094451;28;20043;-80
2022/09/05 04:42:03;;;;;;;11.68;6.60;;;;;;;17.68;100.00;98354.63;5097439;27;20104;-80
2022/09/05 04:44:55;;;;;;;8.05;5.63;;;;;;;17.70;100.00;98349.94;5131722;27;20019;-81
2022/09/05 04:47:34;;;;;;;10.63;5.70;;;;;;;17.72;100.00;98356.09;5109796;28;20031;-79
2022/09/05 04:50:07;;;;;;;8.27;4.95;;;;;;;17.77;100.00;98353.03;5111869;28;20100;-91
2022/09/05 04:52:49;;;;;;;14.30;6.78;;;;;;;17.87;100.00;98360.28;5115179;28;20054;-81
2022/09/05 04:55:29;;;;;;;9.15;5.18;;;;;;;17.94;100.00;98347.16;5129925;28;20042;-80
2022/09/05 04:58:23;;;;;;;15.38;5.10;;;;;;;17.92;100.00;98356.38;5094677;28;20133;-81
2022/09/05 05:01:06;;;;;;;9.27;5.07;;;;;;;17.87;100.00;98364.88;5111667;28;20055;-81
2022/09/05 05:03:33;;;;;;;8.40;5.57;;;;;;;17.90;100.00;98355.66;5107837;28;20035;-80
2022/09/05 05:06:00;;;;;;;15.38;5.72;;;;;;;18.03;100.00;98361.78;5111385;28;20027;-79
2022/09/05 05:08:53;;;;;;;11.68;5.40;;;;;;;18.15;100.00;98364.41;5111183;28;20023;-79
2022/09/05 05:11:38;;;;;;;14.95;5.03;;;;;;;18.24;100.00;98357.41;5110909;28;20036;-80
2022/09/05 05:14:12;;;;;;;9.55;5.25;;;;;;;18.32;100.00;98366.63;5109580;28;20027;-81
2022/09/05 05:16:46;;;;;;;11.13;5.20;;;;;;;18.45;100.00;98365.66;5110677;28;20027;-80
2022/09/05 05:19:28;;;;;;;12.02;5.22;;;;;;;18.58;100.00;98367.25;5110782;28;20490;-79
2022/09/05 05:21:59;;;;;;;11.32;5.13;;;;;;;18.61;100.00;98368.88;5107715;28;20039;-81
2022/09/05 05:24:28;;;;;;;7.47;4.88;;;;;;;18.66;100.00;98361.22;5107561;28;20093;-80
2022/09/05 05:27:58;;;;;;;6.72;4.63;;;;;;;18.76;100.00;98363.06;5106821;28;20039;-81
2022/09/05 05:30:26;;;;;;;12.90;5.53;;;;;;;18.78;100.00;98366.50;5046706;28;20126;-79
2022/09/05 05:32:54;;;;;;;9.75;5.20;;;;;;;18.82;100.00;98361.69;5110094;28;20091;-79
2022/09/05 05:35:30;;;;;;;12.50;6.07;;;;;;;18.96;100.00;98361.41;5092819;28;20074;-79
2022/09/05 05:38:35;;;;;;;10.90;5.70;;;;;;;19.05;100.00;98360.66;5099459;27;20031;-81
2022/09/05 05:41:11;;;;;;;9.65;5.80;;;;;;;19.00;100.00;98356.59;5099582;27;20027;-80
2022/09/05 05:43:39;;;;;;;19.73;9.15;;;;;;;19.01;100.00;98347.50;5101406;28;20398;-81
2022/09/05 05:46:05;;;;;;;7.95;4.70;;;;;;;18.93;100.00;98338.13;5094620;27;20042;-81
2022/09/05 05:48:33;;;;;;;8.40;5.75;;;;;;;19.18;100.00;98349.63;5103445;28;20410;-81
2022/09/05 05:51:16;;;;;;;21.25;13.38;;;;;;;19.35;100.00;98351.78;5105132;27;20058;-81
2022/09/05 05:53:50;;;;;;;9.25;5.78;;;;;;;19.58;100.00;98348.00;5110380;28;20498;-80
2022/09/05 05:56:28;;;;;;;20.33;11.38;;;;;;;19.85;100.00;98345.63;5120303;27;20046;-80
2022/09/05 05:59:05;;;;;;;6.82;4.55;;;;;;;20.18;100.00;98341.81;5125089;27;20134;-81
2022/09/05 06:01:45;;;;;;;9.65;5.03;;;;;;;20.49;100.00;98340.84;5113554;27;20102;-82
2022/09/05 06:04:44;;;;;;;6.80;4.95;;;;;;;21.33;93.86;98335.91;5096106;27;20039;-80
2022/09/05 06:07:43;;;;;;;15.20;5.03;;;;;;;22.06;89.26;98335.28;5103096;27;20023;-80
2022/09/05 06:10:17;;;;;;;30.98;6.55;;;;;;;22.82;85.17;98336.91;5117022;27;20027;-80
2022/09/05 06:13:01;;;;;;;12.38;4.95;;;;;;;23.98;78.77;98323.19;5106264;27;20482;-80
2022/09/05 06:15:52;;;;;;;17.67;4.57;;;;;;;24.35;75.33;98306.53;5125130;27;20046;-80
2022/09/05 06:18:48;;;;;;;13.27;4.30;;;;;;;24.98;73.95;98304.28;5137015;27;20027;-80
2022/09/05 06:21:41;;;;;;;11.40;4.40;;;;;;;26.18;67.50;98281.59;5108823;28;20036;-80
2022/09/05 06:24:39;;;;;;;10.30;3.95;;;;;;;26.44;64.85;98264.88;5117089;27;20099;-79
2022/09/05 06:27:30;;;;;;;14.90;6.50;;;;;;;27.98;60.62;98264.78;5106001;27;20092;-80
2022/09/05 06:30:07;;;;;;;5.90;4.40;;;;;;;29.13;55.87;98238.47;5077753;28;20062;-80
2022/09/05 06:33:10;;;;;;;6.38;3.80;;;;;;;29.23;54.95;98234.31;5107449;28;20070;-80
2022/09/05 06:36:13;;;;;;;5.93;3.58;;;;;;;29.22;53.73;98229.88;5122043;27;20490;-79
2022/09/05 06:38:52;;;;;;;10.05;4.55;;;;;;;30.58;49.89;98225.72;5114504;27;20020;-80
2022/09/05 06:41:20;;;;;;;8.43;5.38;;;;;;;30.40;50.21;98214.38;5104564;27;20031;-80
2022/09/05 06:44:04;;;;;;;4.53;3.25;;;;;;;30.71;48.66;98208.34;5110457;27;20123;-80
2022/09/05 06:46:34;;;;;;;3.83;3.42;;;;;;;31.17;48.21;98211.31;5101426;28;20524;-81
2022/09/05 06:49:26;;;;;;;6.57;3.80;;;;;;;31.16;47.36;98209.63;5087393;27;20562;-80
2022/09/05 06:52:22;;;;;;;4.28;3.53;;;;;;;30.82;48.02;98202.25;5088214;27;20040;-80
2022/09/05 06:55:14;;;;;;;6.18;3.53;;;;;;;29.47;50.09;98200.88;5104879;28;20032;-80
2022/09/05 06:58:07;;;;;;;5.32;4.53;;;;;;;27.50;53.71;98199.25;5109931;27;20073;-79
2022/09/05 07:00:47;;;;;;;5.28;4.07;;;;;;;26.79;55.53;98198.47;5133373;27;20035;-80
2022/09/05 07:04:01;;;;;;;4.85;3.60;;;;;;;26.38;58.32;98200.59;5111632;27;20039;-80
2022/09/05 07:06:38;;;;;;;11.60;5.22;;;;;;;28.26;53.85;98210.84;5065378;27;20044;-81
2022/09/05 07:09:09;;;;;;;7.80;3.75;;;;;;;29.08;51.73;98200.44;5106975;28;20493;-81
2022/09/05 07:11:55;;;;;;;4.35;2.92;;;;;;;30.79;47.69;98183.31;5111138;28;20076;-80
2022/09/05 07:14:26;;;;;;;5.45;4.30;;;;;;;31.68;44.70;98171.00;5090423;27;20530;-80
2022/09/05 07:16:52;;;;;;;;;;;;;;;32.38;43.40;98177.72;5109555;27;20019;-79
2022/09/05 07:19:54;;;;;;;5.75;3.25;;;;;;;31.82;43.37;98170.97;5094137;27;19915;-81
2022/09/05 07:22:37;;;;;;;5.33;3.30;;;;;;;31.99;43.34;98172.22;5071686;27;20060;-80
2022/09/05 07:25:13;;;;;;;7.28;4.13;;;;;;;31.97;43.16;98171.56;5099651;27;20185;-80
2022/09/05 07:27:47;;;;;;;16.77;11.98;;;;;;;32.47;42.80;98175.53;5104680;27;20077;-81
2022/09/05 07:30:13;;;;;;;8.85;3.88;;;;;;;33.02;41.04;98162.94;5113752;27;20567;-81
2022/09/05 07:32:46;;;;;;;14.32;7.75;;;;;;;32.74;41.10;98174.41;5104740;27;20022;-81
2022/09/05 07:35:29;;;;;;;4.88;3.67;;;;;;;31.21;43.56;98156.44;5092482;28;20035;-80
2022/09/05 07:38:21;;;;;;;4.95;3.40;;;;;;;31.34;43.23;98153.69;5077482;28;20031;-80
2022/09/05 07:41:10;;;;;;;10.90;8.00;;;;;;;33.47;39.64;98175.69;5126018;27;20122;-81
2022/09/05 07:43:38;;;;;;;16.30;8.30;;;;;;;34.36;37.94;98169.81;5082582;28;20074;-80
2022/09/05 07:46:12;;;;;;;19.15;13.52;;;;;;;32.89;40.22;98158.31;5081735;27;20052;-80
2022/09/05 07:48:42;;;;;;;6.88;3.80;;;;;;;32.43;40.99;98158.50;5099857;27;20023;-80
2022/09/05 07:51:15;;;;;;;7.60;3.70;;;;;;;31.09;43.02;98153.44;5104767;27;20398;-80
2022/09/05 07:53:41;;;;;;;8.13;3.90;;;;;;;31.79;42.08;98165.84;5087686;27;20023;-80
2022/09/05 07:56:09;;;;;;;4.10;3.30;;;;;;;32.12;41.11;98166.69;5082333;27;20029;-82
2022/09/05 07:58:48;;;;;;;4.82;3.30;;;;;;;32.97;40.00;98165.53;5103598;27;20050;-81
2022/09/05 08:01:16;;;;;;;7.70;5.65;;;;;;;32.40;39.92;98158.06;5108929;27;20032;-81
2022/09/05 08:03:42;;;;;;;11.40;4.25;;;;;;;32.49;40.11;98165.94;5092954;27;20026;-81
2022/09/05 08:06:16;;;;;;;5.70;3.13;;;;;;;33.93;37.60;98155.06;5103885;27;20024;-81
2022/09/05 08:09:10;;;;;;;5.07;4.03;;;;;;;34.82;35.44;98153.41;5094927;28;20080;-79
2022/09/05 08:11:36;;;;;;;7.95;2.85;;;;;;;33.67;36.74;98150.59;5079111;28;20507;-80
2022/09/05 08:14:27;;;;;;;3.20;2.90;;;;;;;33.67;36.85;98151.44;5091986;28;20053;-80
2022/09/05 08:16:53;;;;;;;6.97;3.17;;;;;;;33.43;37.18;98149.47;5116940;27;20502;-80
2022/09/05 08:19:44;;;;;;;4.68;3.10;;;;;;;31.82;38.85;98143.28;5102083;28;21545;-80
2022/09/05 08:22:15;;;;;;;4.70;3.42;;;;;;;33.96;35.61;98165.72;5110533;27;20529;-80
2022/09/05 08:24:46;;;;;;;6.20;3.38;;;;;;;35.25;34.47;98158.00;5093052;27;20030;-81
2022/09/05 08:27:16;;;;;;;5.50;3.30;;;;;;;36.28;32.92;98156.47;5135034;27;20030;-81
2022/09/05 08:30:09;;;;;;;3.60;3.15;;;;;;;36.97;31.91;98145.41;5117692;27;20033;-81
2022/09/05 08:32:47;;;;;;;5.93;3.35;;;;;;;35.22;33.07;98145.41;5153275;27;20044;-80
2022/09/05 08:35:17;;;;;;;3.28;2.95;;;;;;;33.15;35.68;98146.25;5134561;27;20039;-80
2022/09/05 08:37:44;;;;;;;4.60;3.10;;;;;;;33.99;35.07;98165.25;5078695;27;20082;-82
2022/09/05 08:40:19;;;;;;;4.25;3.40;;;;;;;34.56;34.27;98161.22;5099372;28;20077;-81
2022/09/05 08:42:54;;;;;;;3.85;3.05;;;;;;;32.98;36.40;98142.31;5134586;27;20038;-81
2022/09/05 08:45:39;;;;;;;3.38;2.78;;;;;;;30.46;40.22;98161.06;5084866;28;20066;-81
2022/09/05 08:48:10;;;;;;;6.82;4.07;;;;;;;29.48;42.16;98169.50;5127075;27;20022;-81
2022/09/05 08:50:45;;;;;;;5.25;3.72;;;;;;;29.26;43.57;98189.84;5123229;27;20487;-80
2022/09/05 08:53:33;;;;;;;11.23;3.80;;;;;;;29.40;43.46;98208.25;5123069;27;20031;-81
2022/09/05 08:56:22;;;;;;;5.00;3.58;;;;;;;29.18;43.85;98201.00;5120841;27;20477;-81
2022/09/05 08:59:01;;;;;;;7.85;3.42;;;;;;;28.64;45.01;98197.78;5099875;27;20031;-81
2022/09/05 09:01:26;;;;;;;6.43;3.90;;;;;;;27.31;46.50;98186.81;5133742;27;20026;-81
2022/09/05 09:04:04;;;;;;;18.38;3.70;;;;;;;26.35;48.38;98202.84;5096260;27;20020;-80
2022/09/05 09:07:09;;;;;;;6.10;3.90;;;;;;;26.56;49.52;98213.19;5128919;27;20019;-80
2022/09/05 09:09:53;;;;;;;12.52;3.20;;;;;;;27.09;48.06;98218.75;5147993;27;20058;-81
2022/09/05 09:12:37;;;;;;;7.75;3.40;;;;;;;28.60;45.26;98206.63;5117787;27;20066;-80
2022/09/05 09:15:13;;;;;;;14.23;5.07;;;;;;;28.21;45.51;98195.94;5115301;27;20475;-81
2022/09/05 09:17:44;;;;;;;4.82;3.35;;;;;;;29.12;44.13;98207.28;5107304;27;20063;-81
2022/09/05 09:20:30;;;;;;;4.93;3.25;;;;;;;31.69;40.28;98205.03;5132794;27;20418;-81
2022/09/05 09:23:08;;;;;;;4.15;2.97;;;;;;;32.62;37.10;98179.78;5082706;27;20027;-81
2022/09/05 09:25:50;;;;;;;5.78;3.33;;;;;;;33.50;35.92;98172.47;5085915;28;20034;-80
2022/09/05 09:28:50;;;;;;;5.32;3.17;;;;;;;32.40;36.66;98153.41;5109144;28;20028;-81
2022/09/05 09:31:20;;;;;;;6.50;4.40;;;;;;;30.89;39.74;98146.97;5102143;28;20023;-81
2022/09/05 09:33:54;;;;;;;4.82;3.45;;;;;;;30.01;41.31;98167.16;5109629;27;20046;-79
2022/09/05 09:36:51;;;;;;;8.27;5.07;;;;;;;29.90;41.29;98157.53;5108734;28;20118;-80
2022/09/05 09:39:31;;;;;;;5.15;3.58;;;;;;;31.32;39.53;98183.47;5110906;27;20117;-81
2022/09/05 09:42:12;;;;;;;4.35;3.22;;;;;;;33.31;36.58;98180.94;5138162;27;20023;-80
2022/09/05 09:44:56;;;;;;;5.93;3.72;;;;;;;33.48;35.81;98163.50;5104034;27;20513;-79
2022/09/05 09:47:39;;;;;;;4.30;3.25;;;;;;;34.57;33.85;98182.38;5118892;27;20020;-81
2022/09/05 09:50:14;;;;;;;11.50;4.18;;;;;;;33.45;34.57;98141.75;5091112;27;20065;-80
2022/09/05 09:53:18;;;;;;;4.65;3.55;;;;;;;31.37;37.98;98145.84;5105644;28;20020;-80
2022/09/05 09:56:14;;;;;;;5.63;3.47;;;;;;;30.21;40.18;98148.81;5064506;28;20436;-80
2022/09/05 09:59:28;;;;;;;8.02;4.53;;;;;;;29.39;42.44;98147.78;5110295;28;20143;-80
2022/09/05 10:02:14;;;;;;;6.47;3.47;;;;;;;28.30;43.17;98151.59;5007167;28;20038;-80
2022/09/05 10:05:17;;;;;;;5.28;3.83;;;;;;;27.68;45.56;98158.50;5102859;28;20506;-81
2022/09/05 10:08:07;;;;;;;10.65;5.13;;;;;;;27.74;45.89;98160.50;5101734;28;20118;-80
2022/09/05 10:10:58;;;;;;;5.15;3.47;;;;;;;29.56;41.95;98166.56;5095207;28;20024;-80
2022/09/05 10:13:42;;;;;;;4.90;3.37;;;;;;;32.68;37.95;98173.34;5118425;27;20457;-80
2022/09/05 10:16:26;;;;;;;4.80;3.70;;;;;;;34.40;34.41;98145.16;5099753;27;20031;-81
2022/09/05 10:19:19;;;;;;;7.95;4.22;;;;;;;35.25;33.54;98138.50;5123781;27;20031;-81
2022/09/05 10:22:14;;;;;;;7.10;4.65;;;;;;;34.72;34.01;98116.13;5110382;27;20405;-80
2022/09/05 10:24:48;;;;;;;9.90;6.22;;;;;;;32.85;36.53;98111.88;5121284;27;20092;-80
2022/09/05 10:27:31;;;;;;;7.93;5.68;;;;;;;31.33;38.99;98127.94;5133398;27;20106;-79
2022/09/05 10:30:06;;;;;;;11.25;4.70;;;;;;;31.83;38.62;98136.69;5117217;27;20027;-80
2022/09/05 10:32:34;;;;;;;5.97;4.45;;;;;;;33.19;36.79;98148.34;5116739;27;20027;-80
2022/09/05 10:35:17;;;;;;;5.63;4.07;;;;;;;33.77;36.12;98150.94;5135090;27;20031;-81
2022/09/05 10:38:39;;;;;;;6.95;4.97;;;;;;;34.66;34.52;98133.75;5112760;27;20045;-80
2022/09/05 10:41:18;;;;;;;10.30;4.93;;;;;;;32.63;37.14;98103.88;5093246;27;20115;-81
2022/09/05 10:44:00;;;;;;;7.57;3.95;;;;;;;31.81;38.11;98108.38;5099607;27;20341;-80
2022/09/05 10:46:32;;;;;;;8.75;4.10;;;;;;;30.59;39.96;98107.78;5115742;27;20057;-80
2022/09/05 10:49:03;;;;;;;6.10;4.32;;;;;;;30.39;40.90;98124.31;5134398;27;20023;-80
2022/09/05 10:51:33;;;;;;;6.20;3.58;;;;;;;29.82;41.03;98101.66;5134581;27;20474;-80
2022/09/05 10:54:13;;;;;;;4.82;3.75;;;;;;;28.75;42.92;98094.56;5115858;27;20489;-79
2022/09/05 10:56:44;;;;;;;5.63;3.90;;;;;;;28.36;44.83;98106.78;5098607;27;20037;-79
2022/09/05 10:59:31;;;;;;;6.95;4.05;;;;;;;28.30;44.46;98113.06;5098867;27;20089;-79
2022/09/05 11:02:04;;;;;;;6.35;3.65;;;;;;;28.09;45.54;98115.75;5092161;27;20031;-79
2022/09/05 11:05:10;;;;;;;4.60;4.03;;;;;;;27.74;46.02;98122.00;5098466;27;20375;-79
2022/09/05 11:07:47;;;;;;;6.78;4.30;;;;;;;27.55;46.34;98126.16;5134373;27;20035;-80
2022/09/05 11:10:30;;;;;;;7.85;4.40;;;;;;;28.02;45.62;98128.56;5132697;27;20035;-80
2022/09/05 11:13:09;;;;;;;5.10;3.50;;;;;;;29.56;42.73;98124.38;5115357;27;20015;-80
2022/09/05 11:15:48;;;;;;;5.60;3.53;;;;;;;29.73;42.67;98122.16;5133473;27;20026;-80
2022/09/05 11:18:15;;;;;;;6.20;3.65;;;;;;;29.04;44.26;98108.19;5111426;27;20031;-79
2022/09/05 11:21:02;;;;;;;6.88;3.60;;;;;;;28.22;45.46;98088.41;5111524;28;20039;-79
2022/09/05 11:23:37;;;;;;;5.78;3.75;;;;;;;27.63;46.68;98097.69;5111913;28;20486;-79
2022/09/05 11:26:06;;;;;;;15.23;4.30;;;;;;;27.43;47.84;98111.16;5114007;27;20024;-79
2022/09/05 11:28:39;;;;;;;5.28;3.70;;;;;;;27.47;47.80;98125.38;5096910;27;20038;-79
2022/09/05 11:31:10;;;;;;;5.88;3.75;;;;;;;28.48;45.43;98113.53;5114656;27;20050;-80
2022/09/05 11:33:41;;;;;;;10.07;4.00;;;;;;;28.52;45.50;98116.72;5115119;27;20030;-80
2022/09/05 11:36:08;;;;;;;5.68;3.10;;;;;;;27.62;45.75;98102.38;5122858;27;20383;-80
2022/09/05 11:38:46;;;;;;;4.00;3.38;;;;;;;28.60;43.94;98107.50;5117562;27;20032;-80
2022/09/05 11:41:20;;;;;;;6.18;2.90;;;;;;;29.82;41.87;98101.66;5115012;27;20034;-80
2022/09/05 11:43:51;;;;;;;3.15;2.78;;;;;;;31.87;38.42;98100.03;5114569;27;20031;-80
2022/09/05 11:46:30;;;;;;;6.13;3.22;;;;;;;32.04;38.31;98081.94;5125238;27;20055;-80
2022/09/05 11:49:21;;;;;;;6.70;3.03;;;;;;;30.04;40.81;98056.34;5104369;28;20023;-79
2022/09/05 11:52:15;;;;;;;4.50;3.35;;;;;;;28.97;43.14;98060.44;5097706;27;20107;-80
2022/09/05 11:55:01;;;;;;;7.75;3.42;;;;;;;28.38;43.78;98062.56;5112116;27;20060;-80
2022/09/05 11:57:40;;;;;;;4.18;3.42;;;;;;;29.37;42.58;98079.06;5125378;27;20505;-80
2022/09/05 12:00:15;;;;;;;4.53;2.97;;;;;;;31.81;38.83;98098.13;5131095;27;20015;-79
2022/09/05 12:02:44;;;;;;;8.05;3.10;;;;;;;32.73;36.32;98075.69;5094416;28;20062;-81
2022/09/05 12:05:30;;;;;;;5.28;3.55;;;;;;;33.43;35.84;98066.22;5120964;27;20076;-80
2022/09/05 12:08:10;;;;;;;3.70;3.20;;;;;;;32.34;37.15;98040.69;5086911;28;20019;-80
2022/09/05 12:11:05;;;;;;;4.72;3.40;;;;;;;30.52;39.39;98035.94;5089780;27;20332;-80
2022/09/05 12:13:37;;;;;;;4.28;2.90;;;;;;;29.43;41.74;98034.13;5074510;28;20024;-80
2022/09/05 12:16:20;;;;;;;3.88;3.10;;;;;;;29.30;41.22;98038.69;5114258;27;20023;-79
2022/09/05 12:19:17;;;;;;;23.65;14.43;;;;;;;29.71;41.77;98056.16;5127717;27;20052;-80
2022/09/05 12:21:56;;;;;;;9.23;4.88;;;;;;;29.41;42.62;98051.94;5104764;27;20077;-80
2022/09/05 12:24:34;;;;;;;5.93;3.92;;;;;;;28.48;43.24;98032.81;5134413;27;20123;-80
2022/09/05 12:27:07;;;;;;;31.25;20.45;;;;;;;27.98;44.49;98020.78;5115226;27;20479;-80
2022/09/05 12:29:36;;;;;;;6.10;4.03;;;;;;;27.80;44.02;98044.25;5115601;27;20069;-80
2022/09/05 12:32:12;;;;;;;6.90;3.75;;;;;;;28.40;43.64;98053.06;5115151;27;20011;-80
2022/09/05 12:34:52;;;;;;;6.40;3.92;;;;;;;30.22;40.61;98056.66;5114906;27;20027;-81